Tiempo atmosférico en la estación meteorológica de Garganta De La Olla, Cáceres (690 m.)



Fecha
DESCASC
Temp. máxima en grados centígrados (hora)
DESCASC
Temp. mínima en grados centígrados (hora)
DESCASC
Temp. media en grados centígrados
DESCASC
Racha de viento máxima en m/sg (hora)
DESCASC
Velocidad máxima media en intervalos de 10 minutos(hora)
DESCASC
Precipitaciones diarias en mm
DESCASC
Precipitaciones de 00:00 a 06:00 en mm
DESCASC
Precipitaciones de 06:00 a 12:00 en mm
DESCASC
Precipitaciones de 12:00 a 18:00 en mm
DESCASC
Precipitaciones de 18:00 a 24:00 en mm
DESCASC

Gráficas

Temp. máximas Temp. mínimas Temp. medias Precipitaciones Rachas de viento máximas Velocidades máximas media en intervalos de 10 minutos

Datos horarios

Fecha y hora oficial Temperatura (ºC) Velocidad del viento (km/h) Dirección del viento Racha (km/h) Dirección de racha Precipitación (mm) Presión (hPa) Tendencia (hPa) Humedad (%)
2020-09-26 23:00:00 16.3 22 Norte 50 Norte 0 -- -- 64
2020-09-26 22:00:00 16.3 19 Norte 52 Noroeste 0 -- -- 63
2020-09-26 21:00:00 16.8 23 Norte 48 Noroeste 0 -- -- 61
2020-09-26 20:00:00 17.1 12 Noroeste 33 Norte 0 -- -- 59
2020-09-26 19:00:00 17.9 17 Norte 39 Noroeste 0 -- -- 54
2020-09-26 18:00:00 19.9 9 Sudoeste 24 Sur 0 -- -- 42
2020-09-26 17:00:00 21.1 9 Oeste 33 Noroeste 0 -- -- 41
2020-09-26 16:00:00 21 15 Noroeste 29 Noroeste 0 -- -- 39
2020-09-26 15:00:00 20.1 7 Sur 15 Sudeste 0 -- -- 48
2020-09-26 14:00:00 18.9 9 Sur 18 Sudeste 0 -- -- 51
2020-09-26 13:00:00 18 8 Sur 15 Sudeste 0 -- -- 52
2020-09-26 12:00:00 16.6 7 Sudeste 17 Sudeste 0 -- -- 52
2020-09-26 11:00:00 15.4 5 Sudeste 13 Sudeste 0 -- -- 53
2020-09-26 10:00:00 14.2 4 Este 7 Sudeste 0 -- -- 55
2020-09-26 09:00:00 11.4 3 Noroeste 8 Noroeste 0 -- -- 67
2020-09-26 08:00:00 10 2 Oeste 13 Noroeste 0 -- -- 65
2020-09-26 07:00:00 10.7 2 Noroeste 14 Noroeste 0 -- -- 62
2020-09-26 06:00:00 11.1 5 Noroeste 13 Noroeste 0 -- -- 60
2020-09-26 05:00:00 11.4 6 Oeste 17 Noroeste 0 -- -- 59
2020-09-26 04:00:00 11.4 11 Noroeste 17 Noroeste 0 -- -- 60
2020-09-26 03:00:00 11.4 9 Noroeste 18 Noroeste 0 -- -- 57
2020-09-26 02:00:00 11.6 13 Noroeste 18 Noroeste 0 -- -- 58
2020-09-26 01:00:00 13 4 Norte 18 Oeste 0 -- -- 48
2020-09-26 00:00:00 14.6 6 Norte 34 Norte 0 -- -- 42
2020-09-25 23:00:00 14.9 23 Norte 46 Noroeste 0 -- -- 46
2020-09-25 22:00:00 14.7 30 Norte 48 Norte 0 -- -- 47
2020-09-25 21:00:00 14.8 27 Norte 45 Norte 0 -- -- 48
2020-09-25 20:00:00 15.9 21 Norte 38 Norte 0 -- -- 46
2020-09-25 19:00:00 16.9 19 Norte 38 Nordeste 0 -- -- 44
2020-09-25 18:00:00 18.2 14 Norte 34 Norte 0 -- -- 41
2020-09-25 17:00:00 18.8 13 Nordeste 35 Nordeste 0 -- -- 38
2020-09-25 16:00:00 18.9 17 Norte 41 Norte 0 -- -- 36
2020-09-25 15:00:00 17.9 16 Nordeste 38 Norte 0 -- -- 41
2020-09-25 14:00:00 17.2 19 Nordeste 39 Nordeste 0 -- -- 43
2020-09-25 13:00:00 16.9 17 Norte 50 Norte 0 -- -- 43
2020-09-25 12:00:00 16 22 Norte 54 Norte 0 -- -- 44
2020-09-25 11:00:00 14 37 Norte 73 Noroeste 0 -- -- 46
2020-09-25 10:00:00 14.4 39 Norte 85 Norte 0 -- -- 41
2020-09-25 09:00:00 12.7 40 Norte 85 Noroeste 0 -- -- 53
2020-09-25 08:00:00 12.3 59 Norte 90 Norte 0 -- -- 58
2020-09-25 07:00:00 12.9 50 Norte 74 Norte 0 -- -- 55
2020-09-25 06:00:00 13.5 54 Norte 81 Norte 0 -- -- 53
2020-09-25 05:00:00 13.7 51 Norte 81 Norte 0 -- -- 57
2020-09-25 04:00:00 13.8 43 Norte 76 Norte 0 -- -- 60
2020-09-25 03:00:00 14.9 39 Norte 67 Norte 0 -- -- 53
2020-09-25 02:00:00 15.9 34 Norte 67 Norte 0 -- -- 47
2020-09-25 01:00:00 15.9 14 Norte 61 Noroeste 0 -- -- 44
2020-09-25 00:00:00 14.8 31 Norte 51 Noroeste 0 -- -- 58
2020-09-24 23:00:00 15.3 33 Norte 62 Norte 0 -- -- 57
2020-09-24 22:00:00 16.3 24 Norte 42 Noroeste 0 -- -- 56
2020-09-24 21:00:00 16.7 23 Norte 38 Norte 0 -- -- 55
2020-09-24 20:00:00 18.2 17 Norte 36 Noroeste 0 -- -- 56
2020-09-24 19:00:00 19.4 13 Noroeste 28 Norte 0 -- -- 58
2020-09-24 18:00:00 20.4 18 Norte 39 Norte 0 -- -- 57
2020-09-24 17:00:00 21.1 9 Norte 30 Noroeste 0 -- -- 57
2020-09-24 16:00:00 20.3 16 Noroeste 35 Noroeste 0 -- -- 63
2020-09-24 15:00:00 19.9 13 Noroeste 32 Noroeste 0 -- -- 64
2020-09-24 14:00:00 18.5 18 Noroeste 35 Noroeste 0 -- -- 73
2020-09-24 13:00:00 18.9 13 Noroeste 37 Noroeste 0 -- -- 74
2020-09-24 12:00:00 18.4 13 Norte 30 Noroeste 0 -- -- 78
2020-09-24 11:00:00 16.8 14 Noroeste 32 Norte 0 -- -- 84
2020-09-24 10:00:00 16 11 Noroeste 23 Noroeste 0 -- -- 89
2020-09-24 09:00:00 15.4 6 Norte 19 Noroeste 0 -- -- 94
2020-09-24 08:00:00 14.9 6 Noroeste 12 Noroeste 0.2 -- -- 95
2020-09-24 07:00:00 15.4 7 Noroeste 19 Noroeste 0.2 -- -- 93
2020-09-24 06:00:00 15.9 4 Noroeste 23 Noroeste 0.2 -- -- 94
2020-09-24 05:00:00 15.9 6 Norte 21 Noroeste 0.8 -- -- 94
2020-09-24 04:00:00 16.4 5 Noroeste 21 Noroeste 0.4 -- -- 93
2020-09-24 03:00:00 16.7 3 Oeste 14 Oeste 0 -- -- 88
2020-09-24 02:00:00 16.1 3 Noroeste 7 Sudoeste 0 -- -- 94
2020-09-24 01:00:00 16.2 5 Oeste 17 Noroeste 0 -- -- 91
2020-09-24 00:00:00 15.6 3 Noroeste 6 Norte 0 -- -- 96
2020-09-23 23:00:00 15.9 0 Calma 9 Norte 0 -- -- 97
2020-09-23 22:00:00 16.5 5 Noroeste 9 Noroeste 2.8 -- -- 95
2020-09-23 21:00:00 16.7 3 Noroeste 8 Noroeste 0 -- -- 91
2020-09-23 20:00:00 17.3 0 Calma 15 Oeste 0 -- -- 88
2020-09-23 19:00:00 18.3 0 Calma 11 Oeste 0 -- -- 84
2020-09-23 18:00:00 19.1 2 Nordeste 5 Norte 0.4 -- -- 83
2020-09-23 17:00:00 18.9 3 Sur 15 Noroeste 1.4 -- -- 84
2020-09-23 16:00:00 20.4 5 Noroeste 30 Noroeste 0 -- -- 68
2020-09-23 15:00:00 19.8 13 Norte 23 Noroeste 0 -- -- 72
2020-09-23 14:00:00 19 9 Noroeste 23 Norte 0 -- -- 73
2020-09-23 13:00:00 18.8 9 Noroeste 17 Norte 0 -- -- 76
2020-09-23 12:00:00 18.7 4 Sudeste 10 Sudeste 0 -- -- 67
2020-09-23 11:00:00 17.7 3 Este 8 Sudeste 0 -- -- 79
2020-09-23 10:00:00 16.9 3 Sudeste 8 Sudeste 0 -- -- 87
2020-09-23 09:00:00 15.5 2 Sudoeste 4 Noroeste 0 -- -- 93
2020-09-23 08:00:00 15.5 3 Sudoeste 10 Sudoeste 0 -- -- 88
2020-09-23 07:00:00 16.5 2 Sur 18 Noroeste 0 -- -- 77
2020-09-23 06:00:00 16 10 Noroeste 18 Noroeste 0 -- -- 84
2020-09-23 05:00:00 16.3 8 Noroeste 19 Noroeste 0 -- -- 85
2020-09-23 04:00:00 16.5 3 Noroeste 19 Noroeste 0 -- -- 88
2020-09-23 03:00:00 16.9 13 Noroeste 26 Noroeste 0 -- -- 84
2020-09-23 02:00:00 17.5 8 Noroeste 25 Noroeste 0 -- -- 80
2020-09-23 01:00:00 18 12 Noroeste 23 Noroeste 0 -- -- 75
2020-09-23 00:00:00 17.9 12 Noroeste 28 Noroeste 0 -- -- 74
2020-09-22 23:00:00 17.1 8 Noroeste 17 Noroeste 0 -- -- 76
2020-09-22 22:00:00 16.8 10 Noroeste 16 Noroeste 0 -- -- 76
2020-09-22 21:00:00 17 7 Noroeste 15 Noroeste 0 -- -- 73
2020-09-22 20:00:00 18.9 0 Calma 10 Noroeste 0 -- -- 65
2020-09-22 19:00:00 21.4 4 Noroeste 14 Oeste 0 -- -- 55
2020-09-22 18:00:00 23.5 5 Noroeste 15 Oeste 0 -- -- 50
2020-09-22 17:00:00 23.9 10 Noroeste 19 Noroeste 0 -- -- 48
2020-09-22 16:00:00 24 6 Noroeste 21 Oeste 0 -- -- 48
2020-09-22 15:00:00 22.8 5 Este 19 Sudeste 0 -- -- 53
2020-09-22 14:00:00 22.7 9 Sur 18 Este 0 -- -- 53
2020-09-22 13:00:00 21.1 6 Sudeste 14 Sur 0 -- -- 59
2020-09-22 12:00:00 19.8 8 Sudeste 15 Sudeste 0 -- -- 59
2020-09-22 11:00:00 18.7 7 Sudeste 13 Sudeste 0 -- -- 62
2020-09-22 10:00:00 17.9 3 Sudeste 6 Sudeste 0 -- -- 61
2020-09-22 09:00:00 15.6 2 Nordeste 14 Noroeste 0 -- -- 64
2020-09-22 08:00:00 13.7 7 Noroeste 11 Noroeste 0 -- -- 68
2020-09-22 07:00:00 14.1 3 Oeste 13 Noroeste 0 -- -- 68
2020-09-22 06:00:00 15.4 5 Noroeste 17 Noroeste 0 -- -- 63
2020-09-22 05:00:00 15.8 9 Noroeste 22 Noroeste 0 -- -- 62
2020-09-22 04:00:00 15.4 14 Noroeste 22 Noroeste 0 -- -- 65
2020-09-22 03:00:00 15.5 9 Noroeste 22 Noroeste 0 -- -- 65
2020-09-22 02:00:00 16.1 14 Noroeste 24 Noroeste 0 -- -- 63
2020-09-22 01:00:00 16.3 13 Noroeste 24 Noroeste 0 -- -- 62
2020-09-22 00:00:00 16.5 17 Noroeste 28 Noroeste 0 -- -- 62
2020-09-21 23:00:00 15.6 16 Noroeste 26 Noroeste 0 -- -- 65
2020-09-21 22:00:00 16.1 17 Noroeste 25 Noroeste 0 -- -- 66
2020-09-21 21:00:00 16.4 12 Noroeste 18 Noroeste 0 -- -- 68
2020-09-21 20:00:00 17.9 7 Noroeste 19 Noroeste 0 -- -- 64
2020-09-21 19:00:00 20.2 8 Noroeste 27 Noroeste 0 -- -- 53
2020-09-21 18:00:00 22.2 12 Noroeste 25 Oeste 0 -- -- 48
2020-09-21 17:00:00 22.9 8 Noroeste 20 Oeste 0 -- -- 49
2020-09-21 16:00:00 22.9 8 Sudeste 25 Sur 0 -- -- 48
2020-09-21 15:00:00 22.6 10 Sudeste 24 Sudeste 0 -- -- 51
2020-09-21 14:00:00 21.8 11 Sudeste 23 Sudeste 0 -- -- 58
2020-09-21 13:00:00 21.2 10 Sudeste 17 Sudeste 0 -- -- 64
2020-09-21 12:00:00 19.9 6 Sur 15 Sudeste 0 -- -- 70
2020-09-21 11:00:00 18.6 5 Sudeste 10 Sudeste 0 -- -- 69
2020-09-21 10:00:00 17.4 3 Sudeste 8 Sur 0 -- -- 72
2020-09-21 09:00:00 14.8 3 Sur 16 Noroeste 0 -- -- 76
2020-09-21 08:00:00 13.5 6 Noroeste 11 Noroeste 0 -- -- 78
2020-09-21 07:00:00 14.2 7 Oeste 15 Noroeste 0 -- -- 73
2020-09-21 06:00:00 14.4 8 Noroeste 15 Noroeste 0 -- -- 70
2020-09-21 05:00:00 15 8 Noroeste 13 Noroeste 0 -- -- 68
2020-09-21 04:00:00 15.6 7 Noroeste 17 Oeste 0 -- -- 67
2020-09-21 03:00:00 16.1 6 Noroeste 24 Noroeste 0 -- -- 66
2020-09-21 02:00:00 16.7 15 Noroeste 25 Noroeste 0 -- -- 66
2020-09-21 01:00:00 16.7 12 Noroeste 26 Noroeste 0 -- -- 66
2020-09-21 00:00:00 16.8 15 Noroeste 29 Norte 0 -- -- 68
2020-09-20 23:00:00 17.2 13 Noroeste 28 Norte 0 -- -- 67
2020-09-20 22:00:00 16.7 4 Norte 19 Oeste 0 -- -- 75
2020-09-20 21:00:00 17.5 5 Oeste 16 Noroeste 0 -- -- 72
2020-09-20 20:00:00 18.6 5 Noroeste 12 Norte 0 -- -- 74
2020-09-20 19:00:00 19.7 6 Noroeste 20 Noroeste 0 -- -- 72
2020-09-20 18:00:00 21.5 10 Noroeste 30 Oeste 0 -- -- 65
2020-09-20 17:00:00 20.9 13 Noroeste 33 Noroeste 0 -- -- 67
2020-09-20 16:00:00 19.2 14 Norte 24 Norte 0 -- -- 76
2020-09-20 15:00:00 19.8 11 Noroeste 28 Noroeste 0 -- -- 72
2020-09-20 14:00:00 18.3 13 Norte 23 Norte 0 -- -- 79
2020-09-20 13:00:00 18.2 6 Noroeste 13 Nordeste 0 -- -- 80
2020-09-20 12:00:00 17.1 3 Norte 15 Norte 0 -- -- 86
2020-09-20 11:00:00 16.1 2 Sur 5 Sudeste 0 -- -- 98
2020-09-20 10:00:00 15.4 0 Calma 6 Este 0.2 -- -- 100
2020-09-20 09:00:00 15 2 Nordeste 7 Sur 0.8 -- -- 100
2020-09-20 08:00:00 15 2 Sur 11 Sur 1.2 -- -- 99
2020-09-20 07:00:00 15 0 Calma 6 Sudeste 0.6 -- -- 99
2020-09-20 06:00:00 15.4 0 Calma 5 Sur 0 -- -- 95
2020-09-20 05:00:00 15.6 2 Nordeste 8 Sudeste 0 -- -- 90
2020-09-20 04:00:00 15.8 2 Sudeste 12 Oeste 0 -- -- 89
2020-09-20 03:00:00 15.8 4 Noroeste 17 Oeste 0 -- -- 87
2020-09-20 02:00:00 16.1 3 Sur 14 Noroeste 0 -- -- 85
2020-09-20 01:00:00 16.1 4 Norte 18 Noroeste 0 -- -- 86
2020-09-20 00:00:00 16 8 Noroeste 27 Norte 0 -- -- 88
2020-09-19 23:00:00 15.6 8 Noroeste 19 Norte 0.2 -- -- 90
2020-09-19 22:00:00 15.7 7 Noroeste 14 Norte 0.6 -- -- 90
2020-09-19 21:00:00 16 3 Norte 12 Noroeste 0 -- -- 87
2020-09-19 20:00:00 16.5 6 Noroeste 10 Norte 0 -- -- 87
2020-09-19 19:00:00 17.5 4 Noroeste 14 Noroeste 0 -- -- 78
2020-09-19 18:00:00 18.3 4 Noroeste 19 Norte 0 -- -- 72
2020-09-19 17:00:00 18.5 11 Norte 24 Norte 0 -- -- 72
2020-09-19 16:00:00 18 14 Noroeste 26 Noroeste 0 -- -- 73
2020-09-19 15:00:00 17.7 6 Noroeste 19 Noroeste 0.2 -- -- 83
2020-09-19 14:00:00 17 3 Noroeste 19 Sur 0 -- -- 86
2020-09-19 13:00:00 15.9 6 Noroeste 18 Noroeste 0.8 -- -- 91
2020-09-19 12:00:00 15.4 6 Noroeste 23 Oeste 2.2 -- -- 93
2020-09-19 11:00:00 14.8 3 Sur 17 Oeste 4.8 -- -- 98
2020-09-19 10:00:00 14.9 2 Norte 28 Oeste 0.2 -- -- 93
2020-09-19 09:00:00 14.6 8 Oeste 23 Oeste 1.4 -- -- 93
2020-09-19 08:00:00 14.3 8 Noroeste 27 Oeste 2 -- -- 95
2020-09-19 07:00:00 14.4 5 Oeste 23 Noroeste 3 -- -- 98
2020-09-19 06:00:00 14.6 3 Sur 26 Oeste 6 -- -- 97
2020-09-19 05:00:00 14.4 4 Sudeste 18 Sur 9.4 -- -- 100
2020-09-19 04:00:00 14.3 6 Sur 20 Sudeste 7.8 -- -- 100
2020-09-19 03:00:00 14.3 5 Sur 39 Sur 12.2 -- -- 100
2020-09-19 02:00:00 14.3 11 Sur 27 Sur 5.2 -- -- 100
2020-09-19 01:00:00 14 5 Sudoeste 15 Sur 9 -- -- 100
2020-09-19 00:00:00 13.8 3 Sur 6 Sur 1.8 -- -- 99
2020-09-18 23:00:00 13.7 2 Sudeste 9 Sudoeste 11.6 -- -- 99
2020-09-18 22:00:00 13.9 6 Sudoeste 23 Sudeste 6.4 -- -- 96
2020-09-18 21:00:00 14 9 Sudeste 29 Sur 7 -- -- 95
2020-09-18 20:00:00 14.2 5 Sur 30 Sudoeste 3.4 -- -- 94
2020-09-18 19:00:00 15.6 10 Sur 28 Sur 0.4 -- -- 92
2020-09-18 18:00:00 16.3 17 Sur 32 Sur 0 -- -- 89
2020-09-18 17:00:00 16.4 8 Sur 18 Sudeste 0 -- -- 90
2020-09-18 16:00:00 15.1 4 Norte 17 Sur 17.4 -- -- 94
2020-09-18 15:00:00 17.4 7 Sur 22 Sur 1.4 -- -- 80
2020-09-18 14:00:00 19.7 13 Sur 26 Sudeste 0 -- -- 62
2020-09-18 13:00:00 20 12 Sur 22 Sur 0 -- -- 62
2020-09-18 12:00:00 18 10 Sur 24 Sudeste 0 -- -- 77
2020-09-18 11:00:00 17.1 10 Sudeste 20 Sudeste 0 -- -- 88
2020-09-18 10:00:00 15.4 9 Sudeste 18 Sudeste 0 -- -- 95
2020-09-18 09:00:00 14.5 5 Noroeste 8 Noroeste 0 -- -- 98
2020-09-18 08:00:00 14.3 3 Sudoeste 10 Sudeste 0 -- -- 99
2020-09-18 07:00:00 14.4 0 Calma 10 Norte 0 -- -- 97
2020-09-18 06:00:00 14.6 4 Norte 13 Sudoeste 12.6 -- -- 97
2020-09-18 05:00:00 15.2 0 Calma 11 Noroeste 1.4 -- -- 96
2020-09-18 04:00:00 15.6 5 Sudoeste 26 Sur 1.8 -- -- 93
2020-09-18 03:00:00 16.6 14 Sur 25 Sur 0.4 -- -- 93
2020-09-18 02:00:00 17 0 Calma 9 Sudoeste 0 -- -- 92
2020-09-18 01:00:00 17 4 Noroeste 20 Sur 0 -- -- 91
2020-09-18 00:00:00 17.4 8 Sudoeste 19 Sur 0 -- -- 89
2020-09-17 23:00:00 17.9 4 Sur 23 Sur 0 -- -- 89
2020-09-17 22:00:00 17.8 4 Sudoeste 18 Noroeste 0 -- -- 89
2020-09-17 21:00:00 17.6 10 Noroeste 16 Noroeste 0 -- -- 90
2020-09-17 20:00:00 18.4 6 Oeste 30 Sur 2.4 -- -- 91
2020-09-17 19:00:00 21.8 14 Sur 30 Sur 0 -- -- 71
2020-09-17 18:00:00 21.2 16 Sudeste 30 Sudeste 0 -- -- 71
2020-09-17 17:00:00 19.6 10 Sur 34 Sudeste 0.6 -- -- 83
2020-09-17 16:00:00 20 14 Sudeste 26 Sudeste 0 -- -- 74
2020-09-17 15:00:00 18.4 9 Sur 25 Sudeste 0.2 -- -- 84
2020-09-17 14:00:00 18.9 17 Sur 33 Sur 0.8 -- -- 83
2020-09-17 13:00:00 21.2 17 Sudeste 41 Sudeste 0 -- -- 65
2020-09-17 12:00:00 22.2 20 Sudeste 35 Sudeste 0 -- -- 63
2020-09-17 11:00:00 19.1 13 Sur 21 Sur 0 -- -- 73
2020-09-17 10:00:00 18.7 8 Sur 17 Sudoeste 0 -- -- 73
2020-09-17 09:00:00 18.5 5 Sur 24 Sur 0 -- -- 73
2020-09-17 08:00:00 18.5 9 Sur 17 Sur 0 -- -- 72
2020-09-17 07:00:00 17.6 8 Noroeste 23 Sur 0 -- -- 81
2020-09-17 06:00:00 20 7 Sur 23 Sudeste 0 -- -- 64
2020-09-17 05:00:00 19.8 5 Sur 12 Sur 0 -- -- 64
2020-09-17 04:00:00 20 5 Sudoeste 11 Sur 0 -- -- 61
2020-09-17 03:00:00 20 5 Sudoeste 9 Sudoeste 0 -- -- 63
2020-09-17 02:00:00 20.2 2 Sur 12 Noroeste 0 -- -- 62
2020-09-17 01:00:00 19 8 Noroeste 20 Noroeste 0 -- -- 67
2020-09-17 00:00:00 19.8 3 Sudoeste 21 Noroeste 0.2 -- -- 73
2020-09-16 23:00:00 22.5 0 Calma 14 Noroeste 0 -- -- 51
2020-09-16 22:00:00 23.2 9 Noroeste 14 Noroeste 0 -- -- 44
2020-09-16 21:00:00 23.4 5 Noroeste 27 Sudeste 0 -- -- 44
2020-09-16 20:00:00 24.8 8 Sur 21 Sudeste 0 -- -- 38
2020-09-16 19:00:00 25.5 3 Norte 15 Sur 0 -- -- 42
2020-09-16 18:00:00 27.2 8 Sur 22 Sur 0 -- -- 34
2020-09-16 17:00:00 28.3 8 Sudeste 23 Sudeste 0 -- -- 33
2020-09-16 16:00:00 28 9 Sur 21 Sur 0 -- -- 35
2020-09-16 15:00:00 27.4 11 Sudeste 24 Sudeste 0 -- -- 41
2020-09-16 14:00:00 26.7 9 Sur 19 Sur 0 -- -- 44
2020-09-16 13:00:00 25.5 6 Sur 12 Sur 0 -- -- 47
2020-09-16 12:00:00 23.2 7 Sudeste 11 Sudeste 0 -- -- 56
2020-09-16 11:00:00 21.8 3 Sudeste 7 Sudeste 0 -- -- 57
2020-09-16 10:00:00 22.2 0 Calma 4 Nordeste 0 -- -- 56
2020-09-16 09:00:00 20 0 Calma 16 Noroeste 0 -- -- 59
2020-09-16 08:00:00 19.1 9 Noroeste 18 Oeste 0 -- -- 58
2020-09-16 07:00:00 19.2 10 Noroeste 17 Noroeste 0 -- -- 57
2020-09-16 06:00:00 19.3 8 Noroeste 16 Noroeste 0 -- -- 56
2020-09-16 05:00:00 19.2 10 Noroeste 19 Noroeste 0 -- -- 56
2020-09-16 04:00:00 19.5 10 Noroeste 19 Noroeste 0 -- -- 54
2020-09-16 03:00:00 19.3 12 Noroeste 23 Noroeste 0 -- -- 57
2020-09-16 02:00:00 20.2 11 Noroeste 19 Oeste 0 -- -- 54
2020-09-16 01:00:00 19.8 13 Noroeste 21 Noroeste 0 -- -- 55
2020-09-16 00:00:00 19.4 12 Noroeste 22 Noroeste 0 -- -- 59
2020-09-15 23:00:00 19.6 9 Noroeste 19 Noroeste 0 -- -- 59
2020-09-15 22:00:00 19.5 10 Noroeste 15 Noroeste 0 -- -- 60
2020-09-15 21:00:00 20.3 3 Oeste 12 Noroeste 0 -- -- 58
2020-09-15 20:00:00 22 5 Noroeste 14 Oeste 0 -- -- 55
2020-09-15 19:00:00 25.4 3 Sudoeste 15 Sur 0 -- -- 46
2020-09-15 18:00:00 26.7 6 Sur 19 Sudeste 0 -- -- 42
2020-09-15 17:00:00 26.6 9 Sudeste 21 Sur 0 -- -- 44
2020-09-15 16:00:00 26.2 13 Sudeste 21 Sudeste 0 -- -- 43
2020-09-15 15:00:00 25.7 8 Sur 23 Sur 0 -- -- 46
2020-09-15 14:00:00 25.3 7 Sudeste 21 Sur 0 -- -- 54
2020-09-15 13:00:00 24.6 9 Sur 18 Sudeste 0 -- -- 51
2020-09-15 12:00:00 22.9 8 Sur 15 Sur 0 -- -- 67
2020-09-15 11:00:00 21.8 7 Sudeste 12 Sudeste 0 -- -- 71
2020-09-15 10:00:00 20.5 3 Este 8 Noroeste 0 -- -- 72
2020-09-15 09:00:00 17.2 4 Noroeste 9 Sudoeste 0 -- -- 80
2020-09-15 08:00:00 16.8 0 Calma 9 Noroeste 0 -- -- 77
2020-09-15 07:00:00 17 2 Oeste 17 Noroeste 0 -- -- 76
2020-09-15 06:00:00 17.4 6 Noroeste 15 Noroeste 0 -- -- 76
2020-09-15 05:00:00 17.7 12 Noroeste 20 Noroeste 0 -- -- 77
2020-09-15 04:00:00 18.3 6 Noroeste 17 Noroeste 0 -- -- 76
2020-09-15 03:00:00 18.6 11 Noroeste 18 Noroeste 0 -- -- 77
2020-09-15 02:00:00 18.6 13 Noroeste 20 Noroeste 0 -- -- 78
2020-09-15 01:00:00 18.5 15 Noroeste 23 Noroeste 0 -- -- 77
2020-09-15 00:00:00 18 19 Noroeste 26 Noroeste 0 -- -- 83
2020-09-14 23:00:00 18.3 8 Oeste 25 Noroeste 0.6 -- -- 90
2020-09-14 22:00:00 19.4 16 Noroeste 29 Noroeste 0 -- -- 78
2020-09-14 21:00:00 18.7 16 Noroeste 28 Noroeste 3.4 -- -- 83
2020-09-14 20:00:00 20.9 14 Noroeste 24 Sur 2.8 -- -- 74
2020-09-14 19:00:00 27.7 2 Oeste 17 Sudeste 0 -- -- 40
2020-09-14 18:00:00 29.3 3 Sur 18 Sur 0 -- -- 35
2020-09-14 17:00:00 28.2 10 Sur 20 Sur 0 -- -- 38
2020-09-14 16:00:00 28.6 13 Sur 29 Sur 0 -- -- 36
2020-09-14 15:00:00 28.9 16 Sur 29 Sudeste 0 -- -- 37
2020-09-14 14:00:00 28 10 Sudeste 24 Sudeste 0 -- -- 38
2020-09-14 13:00:00 25.6 8 Sudeste 15 Sur 0 -- -- 46
2020-09-14 12:00:00 24.7 8 Sudeste 19 Sur 0 -- -- 46
2020-09-14 11:00:00 23.8 9 Sur 22 Sur 0 -- -- 48
2020-09-14 10:00:00 21.5 8 Sur 22 Sudeste 0 -- -- 52
2020-09-14 09:00:00 20.9 4 Sudoeste 18 Sudoeste 0 -- -- 52
2020-09-14 08:00:00 20.8 6 Sur 15 Sudoeste 0 -- -- 51
2020-09-14 07:00:00 20.9 4 Sur 12 Noroeste 0 -- -- 52
2020-09-14 06:00:00 20.5 6 Oeste 12 Noroeste 0 -- -- 50
2020-09-14 05:00:00 21.2 6 Oeste 12 Noroeste 0 -- -- 46
2020-09-14 04:00:00 21.4 4 Oeste 14 Noroeste 0 -- -- 44
2020-09-14 03:00:00 22.2 5 Sur 16 Sudoeste 0 -- -- 42
2020-09-14 02:00:00 24.5 9 Sur 19 Sur 0 -- -- 37
2020-09-14 01:00:00 25.4 8 Sur 31 Sur 0 -- -- 35
2020-09-14 00:00:00 27.6 15 Sur 33 Sudeste 0 -- -- 31
2020-09-13 23:00:00 26.9 5 Sur 16 Sur 0 -- -- 33
2020-09-13 22:00:00 25.9 4 Sudoeste 12 Sudoeste 0 -- -- 37
2020-09-13 21:00:00 26 3 Oeste 14 Sur 0 -- -- 38
2020-09-13 20:00:00 28.7 9 Sur 22 Sur 0 -- -- 33
2020-09-13 19:00:00 29.9 11 Sudeste 27 Sudeste 0 -- -- 30
2020-09-13 18:00:00 30.8 14 Sudeste 29 Sur 0 -- -- 30
2020-09-13 17:00:00 30.7 13 Sudeste 27 Sudeste 0 -- -- 31
2020-09-13 16:00:00 29.9 11 Sur 27 Sur 0 -- -- 34
2020-09-13 15:00:00 30.1 13 Sudeste 26 Sur 0 -- -- 33
2020-09-13 14:00:00 28.9 9 Sudeste 22 Sudeste 0 -- -- 35
2020-09-13 13:00:00 28.6 13 Sudeste 23 Este 0 -- -- 37
2020-09-13 12:00:00 27.3 10 Sur 17 Sur 0 -- -- 40
2020-09-13 11:00:00 25.8 10 Sur 17 Sur 0 -- -- 41
2020-09-13 10:00:00 25 6 Sur 13 Sur 0 -- -- 42
2020-09-13 09:00:00 22.4 0 Calma 14 Sudoeste 0 -- -- 46
2020-09-13 08:00:00 21.4 6 Oeste 14 Sur 0 -- -- 46
2020-09-13 07:00:00 21.8 7 Sudoeste 24 Sur 0 -- -- 41
2020-09-13 06:00:00 23 8 Sudoeste 24 Sur 0 -- -- 36
2020-09-13 05:00:00 25.1 4 Nordeste 20 Sudeste 0 -- -- 31
2020-09-13 04:00:00 24.7 5 Sur 11 Noroeste 0 -- -- 31
2020-09-13 03:00:00 24.2 6 Noroeste 14 Noroeste 0 -- -- 33
2020-09-13 02:00:00 24.7 8 Noroeste 17 Noroeste 0 -- -- 32
2020-09-13 01:00:00 25.2 10 Noroeste 18 Noroeste 0 -- -- 33
2020-09-13 00:00:00 25.8 10 Noroeste 15 Noroeste 0 -- -- 32
2020-09-12 23:00:00 26 12 Noroeste 18 Noroeste 0 -- -- 33
2020-09-12 22:00:00 26 11 Noroeste 18 Oeste 0 -- -- 32
2020-09-12 21:00:00 26 8 Noroeste 18 Noroeste 0 -- -- 35
2020-09-12 20:00:00 27.2 11 Noroeste 18 Noroeste 0 -- -- 32
2020-09-12 19:00:00 29.7 10 Noroeste 14 Oeste 0 -- -- 31
2020-09-12 18:00:00 31 6 Sur 14 Sur 0 -- -- 26
2020-09-12 17:00:00 31.9 7 Sur 18 Sur 0 -- -- 26
2020-09-12 16:00:00 32 10 Sur 24 Sur 0 -- -- 25
2020-09-12 15:00:00 31.5 9 Este 21 Sudeste 0 -- -- 26
2020-09-12 14:00:00 31.3 11 Sur 21 Sur 0 -- -- 28
2020-09-12 13:00:00 30.1 9 Sur 17 Sudeste 0 -- -- 30
2020-09-12 12:00:00 28.3 7 Sur 14 Este 0 -- -- 32
2020-09-12 11:00:00 27.2 5 Sudeste 10 Este 0 -- -- 34
2020-09-12 10:00:00 24.8 2 Este 5 Este 0 -- -- 38
2020-09-12 09:00:00 21.8 0 Calma 7 Noroeste 0 -- -- 45
2020-09-12 08:00:00 20.6 2 Oeste 11 Oeste 0 -- -- 41
2020-09-12 07:00:00 20.9 9 Noroeste 18 Noroeste 0 -- -- 41
2020-09-12 06:00:00 21.2 10 Noroeste 19 Oeste 0 -- -- 41
2020-09-12 05:00:00 22.6 0 Calma 17 Noroeste 0 -- -- 37
2020-09-12 04:00:00 23.5 10 Noroeste 21 Noroeste 0 -- -- 35
2020-09-12 03:00:00 22.4 11 Noroeste 22 Noroeste 0 -- -- 38
2020-09-12 02:00:00 22.6 6 Oeste 17 Noroeste 0 -- -- 37
2020-09-12 01:00:00 24.9 11 Noroeste 18 Noroeste 0 -- -- 33
2020-09-12 00:00:00 24.9 12 Noroeste 26 Norte 0 -- -- 32
2020-09-11 23:00:00 24.5 16 Noroeste 26 Oeste 0 -- -- 33
2020-09-11 22:00:00 23.4 14 Noroeste 22 Noroeste 0 -- -- 36
2020-09-11 21:00:00 23.3 14 Noroeste 20 Noroeste 0 -- -- 37
2020-09-11 20:00:00 25.1 10 Noroeste 15 Noroeste 0 -- -- 36
2020-09-11 19:00:00 29.8 8 Noroeste 14 Noroeste 0 -- -- 29
2020-09-11 18:00:00 30.6 3 Oeste 15 Sur 0 -- -- 29
2020-09-11 17:00:00 31.2 7 Sudeste 23 Sudeste 0 -- -- 25
2020-09-11 16:00:00 31.3 9 Sudeste 23 Sur 0 -- -- 26
2020-09-11 15:00:00 30.5 9 Sudeste 18 Sudeste 0 -- -- 27
2020-09-11 14:00:00 30.3 9 Sur 19 Sudeste 0 -- -- 28
2020-09-11 13:00:00 28.2 6 Sudeste 17 Sudeste 0 -- -- 32
2020-09-11 12:00:00 27 6 Sudeste 15 Sudeste 0 -- -- 33
2020-09-11 11:00:00 26.2 5 Sudeste 8 Este 0 -- -- 33
2020-09-11 10:00:00 23.9 3 Este 6 Este 0 -- -- 37
2020-09-11 09:00:00 21.4 0 Calma 6 Sur 0 -- -- 49
2020-09-11 08:00:00 20.1 2 Sur 9 Oeste 0 -- -- 43
2020-09-11 07:00:00 20 4 Sudoeste 20 Noroeste 0 -- -- 42
2020-09-11 06:00:00 19.2 11 Noroeste 21 Noroeste 0 -- -- 45
2020-09-11 05:00:00 21.8 10 Noroeste 15 Noroeste 0 -- -- 39
2020-09-11 04:00:00 21.9 11 Noroeste 17 Noroeste 0 -- -- 39
2020-09-11 03:00:00 22.2 12 Noroeste 18 Noroeste 0 -- -- 38
2020-09-11 02:00:00 22 10 Noroeste 14 Noroeste 0 -- -- 37
2020-09-11 01:00:00 22.2 10 Noroeste 19 Noroeste 0 -- -- 37
2020-09-11 00:00:00 23.2 9 Noroeste 19 Noroeste 0 -- -- 37
2020-09-10 23:00:00 23.4 11 Noroeste 18 Noroeste 0 -- -- 35
2020-09-10 22:00:00 24 12 Noroeste 19 Noroeste 0 -- -- 34
2020-09-10 21:00:00 24.3 10 Noroeste 19 Noroeste 0 -- -- 37
2020-09-10 20:00:00 25.3 13 Noroeste 21 Noroeste 0 -- -- 33
2020-09-10 19:00:00 28.8 5 Noroeste 20 Sur 0 -- -- 31
2020-09-10 18:00:00 30.8 7 Sur 20 Sur 0 -- -- 27
2020-09-10 17:00:00 30.4 11 Sur 21 Sudeste 0 -- -- 28
2020-09-10 16:00:00 30.2 8 Sur 23 Sudeste 0 -- -- 29
2020-09-10 15:00:00 29.2 10 Sur 21 Sur 0 -- -- 28
2020-09-10 14:00:00 28.1 9 Sudeste 15 Sur 0 -- -- 33
2020-09-10 13:00:00 26.8 9 Sudeste 18 Sudeste 0 -- -- 37
2020-09-10 12:00:00 25.4 8 Sudeste 15 Sur 0 -- -- 38
2020-09-10 11:00:00 23.6 6 Sudeste 14 Sudeste 0 -- -- 41
2020-09-10 10:00:00 22.4 5 Sudeste 9 Sudeste 0 -- -- 41
2020-09-10 09:00:00 20.1 5 Sur 13 Noroeste 0 -- -- 47
2020-09-10 08:00:00 17.5 8 Noroeste 20 Noroeste 0 -- -- 52
2020-09-10 07:00:00 18.2 7 Noroeste 19 Sur 0 -- -- 43
2020-09-10 06:00:00 20.6 5 Oeste 17 Noroeste 0 -- -- 35
2020-09-10 05:00:00 21 12 Noroeste 20 Noroeste 0 -- -- 35
2020-09-10 04:00:00 22 6 Noroeste 19 Noroeste 0 -- -- 33
2020-09-10 03:00:00 22.3 13 Noroeste 20 Noroeste 0 -- -- 33
2020-09-10 02:00:00 22.4 14 Noroeste 21 Noroeste 0 -- -- 32
2020-09-10 01:00:00 22.5 13 Noroeste 21 Norte 0 -- -- 32
2020-09-10 00:00:00 22.1 14 Noroeste 21 Noroeste 0 -- -- 38
2020-09-09 23:00:00 22.1 15 Noroeste 23 Noroeste 0 -- -- 38
2020-09-09 22:00:00 21.8 14 Noroeste 23 Noroeste 0 -- -- 39
2020-09-09 21:00:00 22.2 15 Noroeste 21 Noroeste 0 -- -- 40
2020-09-09 20:00:00 23.8 10 Noroeste 17 Noroeste 0 -- -- 38
2020-09-09 19:00:00 27.3 4 Sur 16 Sur 0 -- -- 33
2020-09-09 18:00:00 28.5 4 Sudeste 17 Sudeste 0 -- -- 30
2020-09-09 17:00:00 28.9 7 Sur 17 Sur 0 -- -- 28
2020-09-09 16:00:00 28.3 13 Sur 22 Sur 0 -- -- 28
2020-09-09 15:00:00 27.5 12 Sudeste 23 Sur 0 -- -- 29
2020-09-09 14:00:00 26.6 9 Sudeste 23 Sudeste 0 -- -- 33
2020-09-09 13:00:00 25.5 9 Sudeste 16 Sudeste 0 -- -- 36
2020-09-09 12:00:00 23.9 7 Sur 18 Sur 0 -- -- 38
2020-09-09 11:00:00 22.4 7 Sur 14 Sudoeste 0 -- -- 41
2020-09-09 10:00:00 20.6 6 Sudeste 13 Sudeste 0 -- -- 47
2020-09-09 09:00:00 18.8 0 Calma 9 Noroeste 0 -- -- 49
2020-09-09 08:00:00 16.4 0 Calma 13 Noroeste 0 -- -- 51
2020-09-09 07:00:00 16.7 10 Noroeste 15 Noroeste 0 -- -- 50
2020-09-09 06:00:00 17.4 8 Noroeste 13 Noroeste 0 -- -- 48
2020-09-09 05:00:00 18.3 6 Noroeste 12 Noroeste 0 -- -- 45
2020-09-09 04:00:00 18.7 9 Noroeste 14 Noroeste 0 -- -- 43
2020-09-09 03:00:00 19.2 9 Noroeste 14 Noroeste 0 -- -- 41
2020-09-09 02:00:00 19.8 7 Noroeste 13 Noroeste 0 -- -- 39
2020-09-09 01:00:00 20.4 5 Noroeste 12 Noroeste 0 -- -- 35
2020-09-09 00:00:00 20.3 8 Noroeste 15 Noroeste 0 -- -- 34
2020-09-08 23:00:00 20.8 7 Noroeste 19 Norte 0 -- -- 37
2020-09-08 22:00:00 19.6 10 Noroeste 16 Noroeste 0 -- -- 41
2020-09-08 21:00:00 20.3 8 Noroeste 14 Sur 0 -- -- 40
2020-09-08 20:00:00 23.2 5 Sur 20 Sudoeste 0 -- -- 35
2020-09-08 19:00:00 24.5 9 Sudeste 22 Sur 0 -- -- 35
2020-09-08 18:00:00 25.6 13 Sur 28 Sur 0 -- -- 37
2020-09-08 17:00:00 25 11 Sudeste 28 Sur 0 -- -- 39
2020-09-08 16:00:00 24.7 9 Sur 29 Sur 0 -- -- 40
2020-09-08 15:00:00 23.7 14 Sur 31 Sur 0 -- -- 43
2020-09-08 14:00:00 23.2 14 Sur 31 Sudeste 0 -- -- 44
2020-09-08 13:00:00 22.1 11 Sur 28 Sur 0 -- -- 45
2020-09-08 12:00:00 21.1 12 Sudeste 30 Sudeste 0 -- -- 47
2020-09-08 11:00:00 20.2 10 Sudeste 23 Sudeste 0 -- -- 47
2020-09-08 10:00:00 18.8 9 Sudeste 18 Sudeste 0 -- -- 42
2020-09-08 09:00:00 17.1 6 Sur 14 Sur 0 -- -- 45
2020-09-08 08:00:00 15.3 5 Sudoeste 13 Sudoeste 0 -- -- 47
2020-09-08 07:00:00 16 4 Oeste 17 Este 0 -- -- 41
2020-09-08 06:00:00 16.4 4 Noroeste 14 Sudoeste 0 -- -- 40
2020-09-08 05:00:00 17.8 5 Sudoeste 14 Sur 0 -- -- 39
2020-09-08 04:00:00 18.4 6 Sur 15 Sur 0 -- -- 38
2020-09-08 03:00:00 19.7 6 Sur 17 Sudeste 0 -- -- 35
2020-09-08 02:00:00 20 2 Sudoeste 19 Noroeste 0 -- -- 32
2020-09-08 01:00:00 19.7 16 Noroeste 26 Noroeste 0 -- -- 36
2020-09-08 00:00:00 20 9 Noroeste 17 Noroeste 0 -- -- 35
2020-09-07 23:00:00 19.9 9 Noroeste 14 Noroeste 0 -- -- 36
2020-09-07 22:00:00 21.7 3 Sudoeste 17 Noroeste 0 -- -- 36
2020-09-07 21:00:00 22.3 10 Noroeste 17 Noroeste 0 -- -- 41
2020-09-07 20:00:00 23.4 10 Noroeste 17 Noroeste 0 -- -- 41
2020-09-07 19:00:00 27.8 3 Sudoeste 16 Sur 0 -- -- 32
2020-09-07 18:00:00 28.8 7 Sur 17 Sudeste 0 -- -- 30
2020-09-07 17:00:00 28.6 7 Sur 17 Sudeste 0 -- -- 30
2020-09-07 16:00:00 28.3 9 Sur 23 Sudeste 0 -- -- 32
2020-09-07 15:00:00 27.8 12 Sur 25 Sur 0 -- -- 33
2020-09-07 14:00:00 27 12 Sur 21 Sur 0 -- -- 34
2020-09-07 13:00:00 25.6 9 Sur 17 Sudeste 0 -- -- 37
2020-09-07 12:00:00 23.9 8 Sudeste 14 Sudeste 0 -- -- 40
2020-09-07 11:00:00 23.3 8 Sur 15 Sudeste 0 -- -- 39
2020-09-07 10:00:00 22.2 9 Sur 18 Sur 0 -- -- 40
2020-09-07 09:00:00 20.9 0 Calma 11 Sudeste 0 -- -- 50
2020-09-07 08:00:00 19 2 Sudoeste 15 Noroeste 0 -- -- 50
2020-09-07 07:00:00 19.6 6 Noroeste 20 Noroeste 0 -- -- 50
2020-09-07 06:00:00 20.4 9 Noroeste 17 Noroeste 0 -- -- 48
2020-09-07 05:00:00 21.8 5 Oeste 18 Noroeste 0 -- -- 44
2020-09-07 04:00:00 23.2 15 Noroeste 27 Noroeste 0 -- -- 39
2020-09-07 03:00:00 23.5 14 Noroeste 23 Noroeste 0 -- -- 38
2020-09-07 02:00:00 23 11 Noroeste 23 Noroeste 0 -- -- 43
2020-09-07 01:00:00 25.2 10 Noroeste 23 Noroeste 0 -- -- 38
2020-09-07 00:00:00 25.7 13 Noroeste 24 Noroeste 0 -- -- 39
2020-09-06 23:00:00 26.2 15 Norte 32 Norte 0 -- -- 37
2020-09-06 22:00:00 26.7 15 Norte 31 Norte 0 -- -- 35
2020-09-06 21:00:00 26.8 13 Norte 26 Noroeste 0 -- -- 36
2020-09-06 20:00:00 26.9 17 Noroeste 26 Noroeste 0 -- -- 39
2020-09-06 19:00:00 30.5 11 Noroeste 19 Noroeste 0 -- -- 32
2020-09-06 18:00:00 32.8 10 Noroeste 21 Norte 0 -- -- 27
2020-09-06 17:00:00 32.1 5 Nordeste 20 Este 0 -- -- 30
2020-09-06 16:00:00 32.5 10 Sudeste 19 Sudeste 0 -- -- 27
2020-09-06 15:00:00 31.7 10 Sur 20 Sur 0 -- -- 28
2020-09-06 14:00:00 31 6 Sur 15 Sudeste 0 -- -- 32
2020-09-06 13:00:00 29.2 8 Sudeste 15 Sudeste 0 -- -- 36
2020-09-06 12:00:00 27.7 8 Sur 16 Sudeste 0 -- -- 38
2020-09-06 11:00:00 26.6 3 Sudeste 14 Sur 0 -- -- 40
2020-09-06 10:00:00 25.1 5 Sudeste 8 Este 0 -- -- 43
2020-09-06 09:00:00 21.7 2 Norte 4 Nordeste 0 -- -- 51
2020-09-06 08:00:00 19.1 2 Norte 8 Norte 0 -- -- 56
2020-09-06 07:00:00 19.2 7 Noroeste 11 Noroeste 0 -- -- 52
2020-09-06 06:00:00 20.8 6 Sur 20 Noroeste 0 -- -- 41
2020-09-06 05:00:00 21.2 13 Norte 25 Sudeste 0 -- -- 41
2020-09-06 04:00:00 23.8 10 Noroeste 18 Noroeste 0 -- -- 39
2020-09-06 03:00:00 24 13 Noroeste 19 Noroeste 0 -- -- 36
2020-09-06 02:00:00 25.2 11 Noroeste 18 Noroeste 0 -- -- 31
2020-09-06 01:00:00 24.8 10 Noroeste 18 Noroeste 0 -- -- 36
2020-09-06 00:00:00 25.1 12 Noroeste 19 Noroeste 0 -- -- 40
2020-09-05 23:00:00 25.2 10 Noroeste 17 Oeste 0 -- -- 39
2020-09-05 22:00:00 25.5 12 Noroeste 21 Noroeste 0 -- -- 38
2020-09-05 21:00:00 25.3 15 Noroeste 23 Noroeste 0 -- -- 40
2020-09-05 20:00:00 26.5 12 Noroeste 18 Noroeste 0 -- -- 38
2020-09-05 19:00:00 30.9 6 Sur 14 Sur 0 -- -- 30
2020-09-05 18:00:00 32.2 9 Sur 21 Sur 0 -- -- 26
2020-09-05 17:00:00 32.2 5 Sudeste 18 Sur 0 -- -- 27
2020-09-05 16:00:00 32.1 11 Sur 23 Sudeste 0 -- -- 25
2020-09-05 15:00:00 31.7 7 Sur 18 Sudeste 0 -- -- 29
2020-09-05 14:00:00 30.3 5 Sudeste 20 Sudeste 0 -- -- 31
2020-09-05 13:00:00 29.1 8 Sudeste 15 Sudeste 0 -- -- 34
2020-09-05 12:00:00 27.3 7 Sudeste 15 Sudeste 0 -- -- 36
2020-09-05 11:00:00 25.6 8 Sudeste 13 Sudeste 0 -- -- 39
2020-09-05 10:00:00 24.6 5 Sudeste 9 Sudeste 0 -- -- 38
2020-09-05 09:00:00 22.7 2 Sur 16 Noroeste 0 -- -- 41
2020-09-05 08:00:00 20 3 Sudoeste 15 Noroeste 0 -- -- 42
2020-09-05 07:00:00 20.6 11 Noroeste 17 Noroeste 0 -- -- 40
2020-09-05 06:00:00 21.3 8 Noroeste 13 Noroeste 0 -- -- 38
2020-09-05 05:00:00 22.7 9 Noroeste 18 Noroeste 0 -- -- 36
2020-09-05 04:00:00 23 7 Noroeste 18 Noroeste 0 -- -- 37
2020-09-05 03:00:00 23.2 9 Noroeste 18 Noroeste 0 -- -- 35
2020-09-05 02:00:00 24.3 10 Noroeste 20 Noroeste 0 -- -- 34
2020-09-05 01:00:00 24.4 12 Noroeste 19 Noroeste 0 -- -- 35
2020-09-05 00:00:00 24 11 Noroeste 17 Noroeste 0 -- -- 37
2020-09-04 23:00:00 25 12 Noroeste 18 Noroeste 0 -- -- 36
2020-09-04 22:00:00 25.2 11 Noroeste 18 Noroeste 0 -- -- 35
2020-09-04 21:00:00 25.7 8 Noroeste 21 Noroeste 0 -- -- 34
2020-09-04 20:00:00 26.5 9 Noroeste 14 Noroeste 0 -- -- 35
2020-09-04 19:00:00 30.8 4 Sur 20 Sur 0 -- -- 29
2020-09-04 18:00:00 31.8 12 Sur 23 Sudeste 0 -- -- 27
2020-09-04 17:00:00 31.8 7 Sudeste 23 Sur 0 -- -- 27
2020-09-04 16:00:00 31.6 11 Sur 26 Sudeste 0 -- -- 30
2020-09-04 15:00:00 31 10 Sur 22 Sudeste 0 -- -- 32
2020-09-04 14:00:00 29.9 9 Sur 18 Sur 0 -- -- 33
2020-09-04 13:00:00 28.5 9 Sur 18 Sur 0 -- -- 35
2020-09-04 12:00:00 26.7 6 Sudeste 15 Sudeste 0 -- -- 37
2020-09-04 11:00:00 26 9 Sur 14 Sudeste 0 -- -- 39
2020-09-04 10:00:00 24.3 5 Sudeste 10 Este 0 -- -- 37
2020-09-04 09:00:00 21.2 5 Noroeste 8 Noroeste 0 -- -- 49
2020-09-04 08:00:00 19.7 5 Sur 10 Sur 0 -- -- 41
2020-09-04 07:00:00 20.5 4 Sudoeste 10 Sudoeste 0 -- -- 39
2020-09-04 06:00:00 21.5 3 Sudoeste 13 Noroeste 0 -- -- 38
2020-09-04 05:00:00 22.1 9 Noroeste 17 Oeste 0 -- -- 36
2020-09-04 04:00:00 22.9 4 Norte 13 Noroeste 0 -- -- 32
2020-09-04 03:00:00 23.3 8 Noroeste 19 Noroeste 0 -- -- 32
2020-09-04 02:00:00 23.3 10 Noroeste 18 Noroeste 0 -- -- 35
2020-09-04 01:00:00 24.2 12 Noroeste 19 Noroeste 0 -- -- 33
2020-09-04 00:00:00 24.5 9 Noroeste 21 Noroeste 0 -- -- 33
2020-09-03 23:00:00 24.9 12 Noroeste 19 Noroeste 0 -- -- 33
2020-09-03 22:00:00 24.5 13 Noroeste 21 Noroeste 0 -- -- 34
2020-09-03 21:00:00 24.4 12 Noroeste 19 Oeste 0 -- -- 34
2020-09-03 20:00:00 26.1 14 Noroeste 21 Noroeste 0 -- -- 33
2020-09-03 19:00:00 30.5 3 Sudeste 14 Sur 0 -- -- 29
2020-09-03 18:00:00 31.3 6 Sudeste 16 Sur 0 -- -- 25
2020-09-03 17:00:00 31.4 5 Sudeste 19 Sudeste 0 -- -- 23
2020-09-03 16:00:00 31.5 8 Sudoeste 17 Sur 0 -- -- 23
2020-09-03 15:00:00 30.5 10 Sur 23 Sudeste 0 -- -- 24
2020-09-03 14:00:00 30 9 Sur 21 Sudeste 0 -- -- 24
2020-09-03 13:00:00 29 10 Sur 21 Sur 0 -- -- 26
2020-09-03 12:00:00 27.6 7 Sur 15 Sur 0 -- -- 28
2020-09-03 11:00:00 25.2 5 Sudeste 9 Sudeste 0 -- -- 33
2020-09-03 10:00:00 23.4 3 Este 6 Norte 0 -- -- 37
2020-09-03 09:00:00 21.4 0 Calma 13 Noroeste 0 -- -- 41
2020-09-03 08:00:00 17.6 9 Noroeste 22 Noroeste 0 -- -- 44
2020-09-03 07:00:00 18.9 4 Oeste 12 Sudoeste 0 -- -- 40
2020-09-03 06:00:00 21.2 8 Noroeste 18 Noroeste 0 -- -- 35
2020-09-03 05:00:00 20.8 10 Noroeste 18 Noroeste 0 -- -- 36
2020-09-03 04:00:00 21.4 11 Noroeste 17 Noroeste 0 -- -- 35
2020-09-03 03:00:00 21.4 12 Noroeste 18 Noroeste 0 -- -- 35
2020-09-03 02:00:00 21.9 11 Noroeste 17 Noroeste 0 -- -- 32
2020-09-03 01:00:00 22.1 12 Noroeste 18 Noroeste 0 -- -- 31
2020-09-03 00:00:00 23.1 10 Noroeste 21 Noroeste 0 -- -- 30
2020-09-02 23:00:00 22.9 14 Norte 22 Norte 0 -- -- 29
2020-09-02 22:00:00 22.8 15 Noroeste 23 Noroeste 0 -- -- 31
2020-09-02 21:00:00 22.9 9 Noroeste 21 Noroeste 0 -- -- 34
2020-09-02 20:00:00 24.7 12 Noroeste 18 Noroeste 0 -- -- 32
2020-09-02 19:00:00 28.5 4 Sudeste 17 Sur 0 -- -- 27
2020-09-02 18:00:00 29.7 3 Sudeste 15 Sur 0 -- -- 26
2020-09-02 17:00:00 29.7 8 Sur 19 Sur 0 -- -- 24
2020-09-02 16:00:00 29.3 8 Sudoeste 22 Sur 0 -- -- 25
2020-09-02 15:00:00 28.7 10 Sur 21 Sur 0 -- -- 24
2020-09-02 14:00:00 28 10 Sudeste 20 Sur 0 -- -- 26
2020-09-02 13:00:00 26.5 9 Sur 17 Sur 0 -- -- 28
2020-09-02 12:00:00 24.8 8 Sudeste 14 Sudeste 0 -- -- 30
2020-09-02 11:00:00 23.1 6 Sudeste 12 Sudeste 0 -- -- 34
2020-09-02 10:00:00 20.8 6 Sudeste 11 Este 0 -- -- 36
2020-09-02 09:00:00 19.1 2 Nordeste 11 Noroeste 0 -- -- 40
2020-09-02 08:00:00 16.7 5 Noroeste 11 Noroeste 0 -- -- 39
2020-09-02 07:00:00 17.8 4 Sudoeste 24 Noroeste 0 -- -- 35
2020-09-02 06:00:00 17.1 13 Noroeste 20 Noroeste 0 -- -- 38
2020-09-02 05:00:00 18.2 6 Sudoeste 16 Sudoeste 0 -- -- 35
2020-09-02 04:00:00 20.1 9 Noroeste 17 Noroeste 0 -- -- 32
2020-09-02 03:00:00 20.8 11 Noroeste 16 Noroeste 0 -- -- 30
2020-09-02 02:00:00 20.5 10 Noroeste 18 Noroeste 0 -- -- 31
2020-09-02 01:00:00 21.5 5 Noroeste 15 Noroeste 0 -- -- 29
2020-09-02 00:00:00 21.6 5 Noroeste 22 Noroeste 0 -- -- 30
2020-09-01 23:00:00 21.4 15 Noroeste 26 Noroeste 0 -- -- 31
2020-09-01 22:00:00 21.2 18 Noroeste 26 Noroeste 0 -- -- 32
2020-09-01 21:00:00 20.8 8 Noroeste 15 Norte 0 -- -- 33
2020-09-01 20:00:00 25 7 Oeste 14 Sudoeste 0 -- -- 25
2020-09-01 19:00:00 27.6 4 Oeste 17 Noroeste 0 -- -- 21
2020-09-01 18:00:00 29 8 Oeste 21 Oeste 0 -- -- 19
2020-09-01 17:00:00 29.2 5 Sudoeste 24 Sur 0 -- -- 22
2020-09-01 16:00:00 28.1 10 Sudeste 24 Sudeste 0 -- -- 23
2020-09-01 15:00:00 26.5 9 Sudeste 22 Sudeste 0 -- -- 25
2020-09-01 14:00:00 25.6 7 Sur 15 Sur 0 -- -- 27
2020-09-01 13:00:00 24.3 6 Sudeste 12 Este 0 -- -- 31
2020-09-01 12:00:00 23 6 Sur 13 Sudeste 0 -- -- 33
2020-09-01 11:00:00 23.1 8 Sur 14 Sur 0 -- -- 31
2020-09-01 10:00:00 19.5 4 Norte 9 Noroeste 0 -- -- 49
2020-09-01 09:00:00 17.6 2 Noroeste 12 Noroeste 0 -- -- 40
2020-09-01 08:00:00 18.1 5 Oeste 17 Noroeste 0 -- -- 35
2020-09-01 07:00:00 18.5 9 Oeste 16 Noroeste 0 -- -- 34
2020-09-01 06:00:00 18.7 9 Noroeste 19 Noroeste 0 -- -- 35
2020-09-01 05:00:00 18.4 8 Noroeste 17 Noroeste 0 -- -- 34
2020-09-01 04:00:00 18.5 9 Noroeste 15 Noroeste 0 -- -- 34
2020-09-01 03:00:00 18.8 12 Noroeste 17 Noroeste 0 -- -- 33
2020-09-01 02:00:00 18 8 Noroeste 15 Noroeste 0 -- -- 35
2020-09-01 01:00:00 18.6 10 Noroeste 16 Oeste 0 -- -- 35
2020-09-01 00:00:00 19.3 9 Noroeste 19 Noroeste 0 -- -- 33
2020-08-31 23:00:00 20.1 14 Noroeste 23 Noroeste 0 -- -- 31
2020-08-31 22:00:00 19.2 13 Noroeste 22 Noroeste 0 -- -- 32
2020-08-31 21:00:00 18.9 12 Noroeste 21 Noroeste 0 -- -- 34
2020-08-31 20:00:00 21.3 11 Noroeste 18 Noroeste 0 -- -- 32
2020-08-31 19:00:00 25.2 3 Oeste 15 Sur 0 -- -- 26
2020-08-31 18:00:00 25.7 7 Sur 19 Sur 0 -- -- 25
2020-08-31 17:00:00 25.7 6 Sudeste 16 Sudeste 0 -- -- 27
2020-08-31 16:00:00 24.4 5 Sudeste 17 Sudeste 0 -- -- 27
2020-08-31 15:00:00 23.7 8 Sur 17 Sudeste 0 -- -- 28
2020-08-31 14:00:00 22.5 3 Sudeste 15 Sudeste 0 -- -- 32
2020-08-31 13:00:00 22.3 6 Sur 21 Sur 0 -- -- 33
2020-08-31 12:00:00 21.5 6 Sur 19 Sur 0 -- -- 34
2020-08-31 11:00:00 20.2 9 Sur 18 Sudeste 0 -- -- 36
2020-08-31 10:00:00 19.1 4 Sur 9 Sur 0 -- -- 36
2020-08-31 09:00:00 15.8 2 Nordeste 11 Noroeste 0 -- -- 47
2020-08-31 08:00:00 12.6 3 Noroeste 15 Noroeste 0 -- -- 52
2020-08-31 07:00:00 11.4 7 Noroeste 13 Noroeste 0 -- -- 54
2020-08-31 06:00:00 13.1 4 Oeste 14 Noroeste 0 -- -- 49
2020-08-31 05:00:00 12.2 3 Oeste 13 Noroeste 0 -- -- 50
2020-08-31 04:00:00 12.3 2 Noroeste 10 Noroeste 0 -- -- 50
2020-08-31 03:00:00 13.1 6 Noroeste 12 Noroeste 0 -- -- 50
2020-08-31 02:00:00 14.9 10 Sudoeste 18 Noroeste 0 -- -- 45
2020-08-31 01:00:00 15.7 12 Noroeste 17 Noroeste 0 -- -- 42
2020-08-31 00:00:00 16 3 Oeste 19 Noroeste 0 -- -- 42
2020-08-30 23:00:00 16.9 9 Noroeste 17 Noroeste 0 -- -- 39
2020-08-30 22:00:00 18 7 Noroeste 20 Norte 0 -- -- 36
2020-08-30 21:00:00 18.9 12 Norte 25 Norte 0 -- -- 35
2020-08-30 20:00:00 21.5 8 Sudeste 26 Sudeste 0 -- -- 33
2020-08-30 19:00:00 22.5 18 Noroeste 30 Noroeste 0 -- -- 27
2020-08-30 18:00:00 23.8 6 Nordeste 15 Nordeste 0 -- -- 28
2020-08-30 17:00:00 24.1 11 Sur 21 Sudeste 0 -- -- 30
2020-08-30 16:00:00 22.1 8 Sur 19 Sudeste 0 -- -- 36
2020-08-30 15:00:00 22.9 8 Sudeste 21 Sudeste 0 -- -- 36
2020-08-30 14:00:00 21.6 9 Sudeste 21 Sudeste 0 -- -- 38
2020-08-30 13:00:00 19.8 6 Este 18 Sur 0 -- -- 42
2020-08-30 12:00:00 19 9 Sudeste 19 Sudeste 0 -- -- 45
2020-08-30 11:00:00 17.4 5 Este 12 Sur 0 -- -- 48
2020-08-30 10:00:00 15.6 5 Sur 18 Sur 0 -- -- 54
2020-08-30 09:00:00 12.2 4 Norte 12 Noroeste 0 -- -- 69
2020-08-30 08:00:00 10.3 9 Noroeste 15 Noroeste 0 -- -- 72
2020-08-30 07:00:00 10.7 3 Noroeste 7 Oeste 0 -- -- 69
2020-08-30 06:00:00 11.4 0 Calma 10 Noroeste 0 -- -- 66
2020-08-30 05:00:00 12.4 6 Noroeste 13 Noroeste 0 -- -- 62
2020-08-30 04:00:00 13.4 2 Sudoeste 9 Noroeste 0 -- -- 56
2020-08-30 03:00:00 14.6 5 Oeste 17 Noroeste 0 -- -- 50
2020-08-30 02:00:00 15.9 6 Norte 33 Norte 0 -- -- 48
2020-08-30 01:00:00 17.5 21 Norte 40 Norte 0 -- -- 44
2020-08-30 00:00:00 17.9 22 Norte 48 Nordeste 0 -- -- 45
2020-08-29 23:00:00 18.5 25 Nordeste 49 Nordeste 0 -- -- 41
2020-08-29 22:00:00 18.7 13 Norte 37 Norte 0 -- -- 39
2020-08-29 21:00:00 18.6 21 Norte 35 Norte 0 -- -- 39
2020-08-29 20:00:00 19.8 15 Norte 38 Nordeste 0 -- -- 37
2020-08-29 19:00:00 21.4 18 Norte 39 Norte 0 -- -- 34
2020-08-29 18:00:00 22.7 18 Norte 37 Norte 0 -- -- 31
2020-08-29 17:00:00 22.3 9 Nordeste 32 Nordeste 0 -- -- 30
2020-08-29 16:00:00 22.5 14 Nordeste 36 Norte 0 -- -- 32
2020-08-29 15:00:00 22.1 19 Norte 39 Este 0 -- -- 33
2020-08-29 14:00:00 20.5 23 Nordeste 48 Nordeste 0 -- -- 35
2020-08-29 13:00:00 20.8 8 Sudeste 42 Norte 0 -- -- 37
2020-08-29 12:00:00 18.8 23 Norte 45 Norte 0 -- -- 39
2020-08-29 11:00:00 18 21 Norte 37 Norte 0 -- -- 41
2020-08-29 10:00:00 16.4 4 Sudeste 30 Norte 0 -- -- 49
2020-08-29 09:00:00 15.4 12 Norte 26 Norte 0 -- -- 45
2020-08-29 08:00:00 15.8 16 Norte 45 Norte 0 -- -- 39
2020-08-29 07:00:00 15.7 20 Norte 40 Noroeste 0 -- -- 43
2020-08-29 06:00:00 16.1 8 Sur 28 Norte 0 -- -- 35
2020-08-29 05:00:00 16.4 11 Noroeste 36 Norte 0 -- -- 33
2020-08-29 04:00:00 17.6 23 Norte 55 Norte 0 -- -- 35
2020-08-29 03:00:00 17.4 21 Norte 50 Norte 0 -- -- 41
2020-08-29 02:00:00 18.2 19 Nordeste 65 Norte 0 -- -- 41
2020-08-29 01:00:00 18.8 39 Norte 62 Norte 0 -- -- 42
2020-08-29 00:00:00 19.7 30 Norte 63 Noroeste 0 -- -- 40
2020-08-28 23:00:00 20.8 36 Norte 64 Norte 0 -- -- 37
2020-08-28 22:00:00 22.3 22 Norte 38 Norte 0 -- -- 32
2020-08-28 21:00:00 23 21 Norte 35 Norte 0 -- -- 29
2020-08-28 20:00:00 25 22 Norte 39 Norte 0 -- -- 27
2020-08-28 19:00:00 27 17 Norte 37 Noroeste 0 -- -- 27
2020-08-28 18:00:00 28.3 17 Norte 42 Noroeste 0 -- -- 25
2020-08-28 17:00:00 28.6 22 Norte 49 Norte 0 -- -- 27
2020-08-28 16:00:00 28.8 22 Norte 49 Norte 0 -- -- 26
2020-08-28 15:00:00 28.8 17 Norte 49 Norte 0 -- -- 26
2020-08-28 14:00:00 28.7 27 Norte 42 Noroeste 0 -- -- 29
2020-08-28 13:00:00 29.9 10 Noroeste 22 Noroeste 0 -- -- 33
2020-08-28 12:00:00 29 5 Noroeste 14 Oeste 0 -- -- 37
2020-08-28 11:00:00 25.8 3 Nordeste 10 Sur 0 -- -- 46
2020-08-28 10:00:00 24.9 5 Sur 24 Noroeste 0 -- -- 49
2020-08-28 09:00:00 24.7 14 Noroeste 31 Noroeste 0 -- -- 41
2020-08-28 08:00:00 23.7 25 Noroeste 35 Norte 0 -- -- 47
2020-08-28 07:00:00 23.9 12 Noroeste 23 Noroeste 0 -- -- 44
2020-08-28 06:00:00 24.5 12 Noroeste 22 Noroeste 0 -- -- 44
2020-08-28 05:00:00 25.4 10 Noroeste 23 Noroeste 0 -- -- 42
2020-08-28 04:00:00 25.6 15 Noroeste 27 Noroeste 0 -- -- 42
2020-08-28 03:00:00 25.9 17 Noroeste 28 Noroeste 0 -- -- 42
2020-08-28 02:00:00 26.4 12 Noroeste 24 Norte 0 -- -- 39
2020-08-28 01:00:00 27.8 15 Norte 45 Norte 0 -- -- 39
2020-08-28 00:00:00 28.4 24 Norte 42 Norte 0 -- -- 33